HAAB METAR and TAF | Updated Today

HAAB METAR

Addis Ababa Bole International Airport

Observation time: 49 min. ago

HAAB 011500Z 10014KT 9999 FEW025 24/M02 Q1024 NOSIG

Need help? Read our tutorial on how to read METARs or read the parsed version below.

Addis Ababa Bole International Airport (HAAB) METAR

  • Weather conditions on Wed, 01 Feb 2023 15:00:00 +0000 (49 min. ago):
  • Present conditions: Dry
  • Clouds: A few at 762 meters
  • Visibility: Greater than 10 km
  • Wind: 100 degrees at 14 knots
  • Temperature: 24 celsius
  • Dew point: -2 celsius
  • Pressure: 1024 millibars
  • Remarks: None


Useful to know...

HAAB TAF

Addis Ababa Bole International Airport

TAF HAAB 010930Z 0112/0218 VRB03KT CAVOK
Observation time: 6:19 hr. ago
Need help? Read our tutorial on how to read TAFs or read the parsed version below.

Parsed version of TAF for Addis Ababa Bole International Airport (HAAB)

  • From 01 February at 12:00 UTC, to day 02 of the month at 18:00 UTC
  • Visibility: Greater than 10 km
  • Wind: Variable at 3